sensor_id;sensor_type;location;lat;lon;timestamp;pressure;altitude;pressure_sealevel;temperature;humidity
26807;BME280;14380;49.910;6.792;2022-12-18T00:01:56;99948.19;;;-8.79;98.36
26807;BME280;14380;49.910;6.792;2022-12-18T00:04:25;99936.56;;;-8.73;99.13
26807;BME280;14380;49.910;6.792;2022-12-18T00:06:52;99935.19;;;-8.86;97.93
26807;BME280;14380;49.910;6.792;2022-12-18T00:09:19;99942.63;;;-8.71;99.09
26807;BME280;14380;49.910;6.792;2022-12-18T00:11:46;99946.25;;;-8.65;98.67
26807;BME280;14380;49.910;6.792;2022-12-18T00:14:13;99943.66;;;-8.87;99.20
26807;BME280;14380;49.910;6.792;2022-12-18T00:16:40;99937.28;;;-8.75;98.49
26807;BME280;14380;49.910;6.792;2022-12-18T00:19:10;99934.81;;;-8.74;98.75
26807;BME280;14380;49.910;6.792;2022-12-18T00:21:38;99935.34;;;-8.81;99.77
26807;BME280;14380;49.910;6.792;2022-12-18T00:24:07;99940.91;;;-8.70;99.71
26807;BME280;14380;49.910;6.792;2022-12-18T00:26:35;99941.94;;;-8.67;99.21
26807;BME280;14380;49.910;6.792;2022-12-18T00:29:05;99936.03;;;-8.64;98.71
26807;BME280;14380;49.910;6.792;2022-12-18T00:31:32;99943.03;;;-8.60;99.20
26807;BME280;14380;49.910;6.792;2022-12-18T00:33:59;99939.69;;;-8.59;100.00
26807;BME280;14380;49.910;6.792;2022-12-18T00:36:28;99933.63;;;-8.61;100.00
26807;BME280;14380;49.910;6.792;2022-12-18T00:38:57;99929.56;;;-8.56;99.72
26807;BME280;14380;49.910;6.792;2022-12-18T00:41:24;99921.59;;;-8.63;99.66
26807;BME280;14380;49.910;6.792;2022-12-18T00:44:10;99917.31;;;-8.63;99.65
26807;BME280;14380;49.910;6.792;2022-12-18T00:46:37;99927.16;;;-8.72;99.73
26807;BME280;14380;49.910;6.792;2022-12-18T00:49:05;99923.44;;;-8.59;99.28
26807;BME280;14380;49.910;6.792;2022-12-18T00:51:32;99920.56;;;-8.67;98.75
26807;BME280;14380;49.910;6.792;2022-12-18T00:53:59;99907.47;;;-8.75;99.19
26807;BME280;14380;49.910;6.792;2022-12-18T00:56:26;99909.06;;;-8.77;97.54
26807;BME280;14380;49.910;6.792;2022-12-18T00:58:53;99915.41;;;-8.69;97.94
26807;BME280;14380;49.910;6.792;2022-12-18T01:01:19;99914.06;;;-9.01;97.98
26807;BME280;14380;49.910;6.792;2022-12-18T01:03:46;99915.66;;;-8.84;97.58
26807;BME280;14380;49.910;6.792;2022-12-18T01:06:14;99925.63;;;-8.90;98.35
26807;BME280;14380;49.910;6.792;2022-12-18T01:08:41;99921.56;;;-8.85;99.47
26807;BME280;14380;49.910;6.792;2022-12-18T01:11:11;99911.13;;;-8.68;99.24
26807;BME280;14380;49.910;6.792;2022-12-18T01:13:38;99919.19;;;-8.80;98.41
26807;BME280;14380;49.910;6.792;2022-12-18T01:16:04;99928.75;;;-8.76;98.78
26807;BME280;14380;49.910;6.792;2022-12-18T01:18:31;99928.84;;;-8.94;100.00
26807;BME280;14380;49.910;6.792;2022-12-18T01:20:58;99926.88;;;-8.80;99.30
26807;BME280;14380;49.910;6.792;2022-12-18T01:23:25;99930.22;;;-9.02;99.36
26807;BME280;14380;49.910;6.792;2022-12-18T01:25:54;99934.69;;;-8.97;100.00
26807;BME280;14380;49.910;6.792;2022-12-18T01:28:22;99943.13;;;-8.99;100.00
26807;BME280;14380;49.910;6.792;2022-12-18T01:30:48;99935.09;;;-8.87;99.53
26807;BME280;14380;49.910;6.792;2022-12-18T01:33:15;99943.03;;;-8.81;98.90
26807;BME280;14380;49.910;6.792;2022-12-18T01:35:42;99950.44;;;-8.87;98.89
26807;BME280;14380;49.910;6.792;2022-12-18T01:38:09;99942.41;;;-8.75;98.37
26807;BME280;14380;49.910;6.792;2022-12-18T01:40:36;99934.94;;;-8.71;98.28
26807;BME280;14380;49.910;6.792;2022-12-18T01:43:03;99928.53;;;-8.81;98.83
26807;BME280;14380;49.910;6.792;2022-12-18T01:45:31;99927.72;;;-8.79;99.76
26807;BME280;14380;49.910;6.792;2022-12-18T01:48:00;99932.94;;;-8.78;99.62
26807;BME280;14380;49.910;6.792;2022-12-18T01:50:31;99924.47;;;-8.75;99.39
26807;BME280;14380;49.910;6.792;2022-12-18T01:53:02;99920.28;;;-8.94;99.97
26807;BME280;14380;49.910;6.792;2022-12-18T01:55:36;99917.63;;;-8.76;98.73
26807;BME280;14380;49.910;6.792;2022-12-18T01:58:04;99913.50;;;-8.94;98.52
26807;BME280;14380;49.910;6.792;2022-12-18T02:00:32;99913.28;;;-8.99;98.52
26807;BME280;14380;49.910;6.792;2022-12-18T02:02:59;99911.88;;;-8.92;98.55
26807;BME280;14380;49.910;6.792;2022-12-18T02:05:33;99910.47;;;-9.05;99.77
26807;BME280;14380;49.910;6.792;2022-12-18T02:08:08;99923.53;;;-8.99;98.82
26807;BME280;14380;49.910;6.792;2022-12-18T02:10:43;99925.81;;;-9.05;98.31
26807;BME280;14380;49.910;6.792;2022-12-18T02:13:15;99922.47;;;-8.83;97.07
26807;BME280;14380;49.910;6.792;2022-12-18T02:15:51;99916.47;;;-9.04;97.62
26807;BME280;14380;49.910;6.792;2022-12-18T02:18:27;99916.44;;;-9.06;98.61
26807;BME280;14380;49.910;6.792;2022-12-18T02:21:00;99903.94;;;-8.98;97.60
26807;BME280;14380;49.910;6.792;2022-12-18T02:23:44;99903.84;;;-9.21;98.14
26807;BME280;14380;49.910;6.792;2022-12-18T02:26:20;99899.19;;;-9.10;96.92
26807;BME280;14380;49.910;6.792;2022-12-18T02:28:53;99898.31;;;-9.11;98.30
26807;BME280;14380;49.910;6.792;2022-12-18T02:31:23;99904.19;;;-9.13;97.75
26807;BME280;14380;49.910;6.792;2022-12-18T02:33:52;99893.50;;;-9.03;97.17
26807;BME280;14380;49.910;6.792;2022-12-18T02:36:23;99892.66;;;-9.03;98.30
26807;BME280;14380;49.910;6.792;2022-12-18T02:38:52;99885.38;;;-9.14;98.05
26807;BME280;14380;49.910;6.792;2022-12-18T02:41:21;99887.91;;;-9.15;97.33
26807;BME280;14380;49.910;6.792;2022-12-18T02:43:56;99885.22;;;-9.38;96.10
26807;BME280;14380;49.910;6.792;2022-12-18T02:46:32;99890.31;;;-9.18;97.48
26807;BME280;14380;49.910;6.792;2022-12-18T02:49:06;99892.47;;;-9.28;97.27
26807;BME280;14380;49.910;6.792;2022-12-18T02:51:44;99893.28;;;-9.09;97.25
26807;BME280;14380;49.910;6.792;2022-12-18T02:54:19;99888.50;;;-9.21;98.11
26807;BME280;14380;49.910;6.792;2022-12-18T02:56:51;99891.25;;;-9.16;99.76
26807;BME280;14380;49.910;6.792;2022-12-18T02:59:25;99902.28;;;-9.17;98.39
26807;BME280;14380;49.910;6.792;2022-12-18T03:01:58;99905.66;;;-9.18;97.97
26807;BME280;14380;49.910;6.792;2022-12-18T03:04:29;99907.06;;;-9.25;96.67
26807;BME280;14380;49.910;6.792;2022-12-18T03:07:04;99907.06;;;-9.25;97.21
26807;BME280;14380;49.910;6.792;2022-12-18T03:09:36;99912.63;;;-9.35;96.55
26807;BME280;14380;49.910;6.792;2022-12-18T03:12:10;99911.44;;;-9.22;96.78
26807;BME280;14380;49.910;6.792;2022-12-18T03:14:52;99899.84;;;-9.35;98.10
26807;BME280;14380;49.910;6.792;2022-12-18T03:17:23;99907.69;;;-9.31;98.87
26807;BME280;14380;49.910;6.792;2022-12-18T03:19:52;99899.53;;;-9.22;97.52
26807;BME280;14380;49.910;6.792;2022-12-18T03:22:22;99899.00;;;-9.54;98.50
26807;BME280;14380;49.910;6.792;2022-12-18T03:24:50;99906.16;;;-9.47;98.55
26807;BME280;14380;49.910;6.792;2022-12-18T03:27:20;99898.75;;;-9.60;98.94
26807;BME280;14380;49.910;6.792;2022-12-18T03:29:54;99899.34;;;-9.46;100.00
26807;BME280;14380;49.910;6.792;2022-12-18T03:32:25;99899.22;;;-9.30;99.55
26807;BME280;14380;49.910;6.792;2022-12-18T03:34:55;99901.03;;;-9.47;97.42
26807;BME280;14380;49.910;6.792;2022-12-18T03:37:24;99898.41;;;-9.48;98.39
26807;BME280;14380;49.910;6.792;2022-12-18T03:39:51;99886.69;;;-9.43;98.22
26807;BME280;14380;49.910;6.792;2022-12-18T03:42:27;99885.63;;;-9.29;98.20
26807;BME280;14380;49.910;6.792;2022-12-18T03:44:59;99875.59;;;-9.44;98.66
26807;BME280;14380;49.910;6.792;2022-12-18T03:47:30;99880.31;;;-9.33;96.86
26807;BME280;14380;49.910;6.792;2022-12-18T03:50:06;99875.19;;;-9.33;97.45
26807;BME280;14380;49.910;6.792;2022-12-18T03:52:38;99881.13;;;-9.34;96.57
26807;BME280;14380;49.910;6.792;2022-12-18T03:55:08;99874.47;;;-9.50;96.56
26807;BME280;14380;49.910;6.792;2022-12-18T03:57:37;99869.72;;;-9.41;96.35
26807;BME280;14380;49.910;6.792;2022-12-18T04:00:09;99869.91;;;-9.58;97.12
26807;BME280;14380;49.910;6.792;2022-12-18T04:02:37;99871.44;;;-9.61;96.61
26807;BME280;14380;49.910;6.792;2022-12-18T04:05:07;99873.94;;;-9.63;97.03
26807;BME280;14380;49.910;6.792;2022-12-18T04:07:35;99865.38;;;-9.44;97.78
26807;BME280;14380;49.910;6.792;2022-12-18T04:10:03;99865.28;;;-9.26;98.34
26807;BME280;14380;49.910;6.792;2022-12-18T04:12:32;99864.03;;;-9.35;97.61
26807;BME280;14380;49.910;6.792;2022-12-18T04:15:00;99860.75;;;-9.12;99.58
26807;BME280;14380;49.910;6.792;2022-12-18T04:17:26;99860.56;;;-9.16;98.46
26807;BME280;14380;49.910;6.792;2022-12-18T04:19:53;99866.34;;;-9.20;99.07
26807;BME280;14380;49.910;6.792;2022-12-18T04:22:19;99861.84;;;-9.26;97.40
26807;BME280;14380;49.910;6.792;2022-12-18T04:24:46;99868.97;;;-9.19;96.57
26807;BME280;14380;49.910;6.792;2022-12-18T04:27:13;99856.19;;;-9.19;98.02
26807;BME280;14380;49.910;6.792;2022-12-18T04:29:39;99859.75;;;-9.15;99.20
26807;BME280;14380;49.910;6.792;2022-12-18T04:32:08;99856.66;;;-9.28;97.88
26807;BME280;14380;49.910;6.792;2022-12-18T04:34:35;99863.13;;;-9.36;98.02
26807;BME280;14380;49.910;6.792;2022-12-18T04:37:01;99852.38;;;-9.29;97.20
26807;BME280;14380;49.910;6.792;2022-12-18T04:39:28;99852.91;;;-9.36;96.84
26807;BME280;14380;49.910;6.792;2022-12-18T04:41:54;99854.78;;;-9.32;96.55
26807;BME280;14380;49.910;6.792;2022-12-18T04:44:21;99859.59;;;-9.39;96.65
26807;BME280;14380;49.910;6.792;2022-12-18T04:46:48;99857.03;;;-9.39;97.78
26807;BME280;14380;49.910;6.792;2022-12-18T04:49:16;99859.50;;;-9.41;97.16
26807;BME280;14380;49.910;6.792;2022-12-18T04:51:43;99862.94;;;-9.60;97.62
26807;BME280;14380;49.910;6.792;2022-12-18T04:54:09;99857.56;;;-9.47;96.92
26807;BME280;14380;49.910;6.792;2022-12-18T04:56:36;99860.25;;;-9.44;96.54
26807;BME280;14380;49.910;6.792;2022-12-18T04:59:02;99856.78;;;-9.46;96.19
26807;BME280;14380;49.910;6.792;2022-12-18T05:01:30;99856.97;;;-9.61;97.50
26807;BME280;14380;49.910;6.792;2022-12-18T05:03:56;99849.31;;;-9.61;96.19
26807;BME280;14380;49.910;6.792;2022-12-18T05:06:24;99855.00;;;-9.66;96.87
26807;BME280;14380;49.910;6.792;2022-12-18T05:08:51;99857.31;;;-9.53;96.78
26807;BME280;14380;49.910;6.792;2022-12-18T05:11:18;99856.50;;;-9.52;96.80
26807;BME280;14380;49.910;6.792;2022-12-18T05:13:45;99859.31;;;-9.46;96.48
26807;BME280;14380;49.910;6.792;2022-12-18T05:16:12;99860.19;;;-9.45;97.10
26807;BME280;14380;49.910;6.792;2022-12-18T05:18:40;99871.47;;;-9.40;96.99
26807;BME280;14380;49.910;6.792;2022-12-18T05:21:07;99867.47;;;-9.54;96.46
26807;BME280;14380;49.910;6.792;2022-12-18T05:23:35;99872.38;;;-9.39;97.64
26807;BME280;14380;49.910;6.792;2022-12-18T05:26:04;99870.81;;;-9.36;97.56
26807;BME280;14380;49.910;6.792;2022-12-18T05:28:32;99864.50;;;-9.44;97.86
26807;BME280;14380;49.910;6.792;2022-12-18T05:31:01;99879.38;;;-9.55;98.46
26807;BME280;14380;49.910;6.792;2022-12-18T05:33:30;99880.41;;;-9.51;98.31
26807;BME280;14380;49.910;6.792;2022-12-18T05:35:58;99878.44;;;-9.37;96.92
26807;BME280;14380;49.910;6.792;2022-12-18T05:38:26;99889.91;;;-9.47;95.67
26807;BME280;14380;49.910;6.792;2022-12-18T05:40:55;99890.59;;;-9.71;97.33
26807;BME280;14380;49.910;6.792;2022-12-18T05:43:23;99886.50;;;-9.67;96.52
26807;BME280;14380;49.910;6.792;2022-12-18T05:45:51;99891.00;;;-9.42;97.37
26807;BME280;14380;49.910;6.792;2022-12-18T05:48:19;99890.69;;;-9.50;96.87
26807;BME280;14380;49.910;6.792;2022-12-18T05:50:48;99892.22;;;-9.53;97.51
26807;BME280;14380;49.910;6.792;2022-12-18T05:53:17;99898.00;;;-9.58;97.31
26807;BME280;14380;49.910;6.792;2022-12-18T05:55:45;99895.72;;;-9.51;97.50
26807;BME280;14380;49.910;6.792;2022-12-18T05:58:14;99895.03;;;-9.28;98.28
26807;BME280;14380;49.910;6.792;2022-12-18T06:00:42;99895.25;;;-9.43;97.92
26807;BME280;14380;49.910;6.792;2022-12-18T06:03:10;99893.03;;;-9.35;97.90
26807;BME280;14380;49.910;6.792;2022-12-18T06:05:38;99896.84;;;-9.25;99.28
26807;BME280;14380;49.910;6.792;2022-12-18T06:08:05;99898.66;;;-9.22;98.03
26807;BME280;14380;49.910;6.792;2022-12-18T06:10:32;99892.97;;;-9.36;97.39
26807;BME280;14380;49.910;6.792;2022-12-18T06:12:59;99903.59;;;-9.27;98.73
26807;BME280;14380;49.910;6.792;2022-12-18T06:15:27;99906.34;;;-9.22;97.44
26807;BME280;14380;49.910;6.792;2022-12-18T06:17:54;99900.41;;;-9.21;98.36
26807;BME280;14380;49.910;6.792;2022-12-18T06:20:20;99906.59;;;-9.16;98.79
26807;BME280;14380;49.910;6.792;2022-12-18T06:22:47;99902.88;;;-9.23;97.47
26807;BME280;14380;49.910;6.792;2022-12-18T06:25:13;99897.72;;;-9.24;97.14
26807;BME280;14380;49.910;6.792;2022-12-18T06:27:40;99909.63;;;-9.25;99.06
26807;BME280;14380;49.910;6.792;2022-12-18T06:30:08;99923.69;;;-9.35;98.75
26807;BME280;14380;49.910;6.792;2022-12-18T06:32:36;99917.91;;;-9.11;99.43
26807;BME280;14380;49.910;6.792;2022-12-18T06:35:03;99919.53;;;-9.13;98.42
26807;BME280;14380;49.910;6.792;2022-12-18T06:37:30;99916.03;;;-9.15;97.35
26807;BME280;14380;49.910;6.792;2022-12-18T06:39:57;99904.22;;;-9.12;97.76
26807;BME280;14380;49.910;6.792;2022-12-18T06:42:24;99914.00;;;-9.22;97.80
26807;BME280;14380;49.910;6.792;2022-12-18T06:44:51;99922.69;;;-9.19;99.43
26807;BME280;14380;49.910;6.792;2022-12-18T06:47:17;99925.91;;;-9.23;97.63
26807;BME280;14380;49.910;6.792;2022-12-18T06:49:45;99924.50;;;-9.16;99.12
26807;BME280;14380;49.910;6.792;2022-12-18T06:52:12;99920.03;;;-9.01;100.00
26807;BME280;14380;49.910;6.792;2022-12-18T06:54:39;99925.34;;;-8.96;100.00
26807;BME280;14380;49.910;6.792;2022-12-18T06:57:06;99930.66;;;-8.91;100.00
26807;BME280;14380;49.910;6.792;2022-12-18T06:59:32;99927.03;;;-8.97;99.34
26807;BME280;14380;49.910;6.792;2022-12-18T07:01:59;99936.53;;;-8.94;100.00
26807;BME280;14380;49.910;6.792;2022-12-18T07:04:27;99932.59;;;-9.07;100.00
26807;BME280;14380;49.910;6.792;2022-12-18T07:06:56;99930.66;;;-8.91;100.00
26807;BME280;14380;49.910;6.792;2022-12-18T07:09:24;99930.38;;;-8.98;100.00
26807;BME280;14380;49.910;6.792;2022-12-18T07:11:51;99929.75;;;-9.13;100.00
26807;BME280;14380;49.910;6.792;2022-12-18T07:14:17;99934.59;;;-9.19;100.00
26807;BME280;14380;49.910;6.792;2022-12-18T07:16:44;99933.56;;;-9.03;100.00
26807;BME280;14380;49.910;6.792;2022-12-18T07:19:11;99938.03;;;-8.99;100.00
26807;BME280;14380;49.910;6.792;2022-12-18T07:21:39;99933.03;;;-9.16;100.00
26807;BME280;14380;49.910;6.792;2022-12-18T07:24:07;99923.97;;;-9.09;100.00
26807;BME280;14380;49.910;6.792;2022-12-18T07:26:34;99928.09;;;-8.91;100.00
26807;BME280;14380;49.910;6.792;2022-12-18T07:29:01;99943.25;;;-8.96;100.00
26807;BME280;14380;49.910;6.792;2022-12-18T07:31:27;99951.22;;;-9.09;100.00
26807;BME280;14380;49.910;6.792;2022-12-18T07:33:54;99965.63;;;-8.92;100.00
26807;BME280;14380;49.910;6.792;2022-12-18T07:36:21;99969.94;;;-8.91;99.15
26807;BME280;14380;49.910;6.792;2022-12-18T07:38:48;99965.63;;;-8.92;98.47
26807;BME280;14380;49.910;6.792;2022-12-18T07:41:16;99980.84;;;-8.95;99.21
26807;BME280;14380;49.910;6.792;2022-12-18T07:43:43;99968.34;;;-8.87;99.13
26807;BME280;14380;49.910;6.792;2022-12-18T07:46:11;99958.25;;;-8.84;99.52
26807;BME280;14380;49.910;6.792;2022-12-18T07:48:39;99953.91;;;-8.65;100.00
26807;BME280;14380;49.910;6.792;2022-12-18T07:51:06;99957.59;;;-8.59;100.00
26807;BME280;14380;49.910;6.792;2022-12-18T07:53:34;99949.97;;;-8.57;100.00
26807;BME280;14380;49.910;6.792;2022-12-18T07:56:04;99948.25;;;-8.36;100.00
26807;BME280;14380;49.910;6.792;2022-12-18T07:58:33;99947.03;;;-8.45;99.22
26807;BME280;14380;49.910;6.792;2022-12-18T08:01:04;99942.50;;;-8.53;98.93
26807;BME280;14380;49.910;6.792;2022-12-18T08:03:31;99934.25;;;-8.67;99.40
26807;BME280;14380;49.910;6.792;2022-12-18T08:05:59;99920.25;;;-8.54;97.90
26807;BME280;14380;49.910;6.792;2022-12-18T08:08:25;99914.06;;;-8.59;97.75
26807;BME280;14380;49.910;6.792;2022-12-18T08:10:52;99915.06;;;-8.55;97.53
26807;BME280;14380;49.910;6.792;2022-12-18T08:13:19;99913.44;;;-8.74;97.67
26807;BME280;14380;49.910;6.792;2022-12-18T08:15:55;99900.84;;;-8.70;96.61
26807;BME280;14380;49.910;6.792;2022-12-18T08:18:22;99904.59;;;-8.61;98.05
26807;BME280;14380;49.910;6.792;2022-12-18T08:20:48;99898.03;;;-8.55;97.13
26807;BME280;14380;49.910;6.792;2022-12-18T08:23:15;99912.50;;;-8.55;97.52
26807;BME280;14380;49.910;6.792;2022-12-18T08:25:41;99910.44;;;-8.64;97.44
26807;BME280;14380;49.910;6.792;2022-12-18T08:28:09;99910.00;;;-8.31;96.54
26807;BME280;14380;49.910;6.792;2022-12-18T08:30:35;99915.56;;;-8.20;96.75
26807;BME280;14380;49.910;6.792;2022-12-18T08:33:04;99907.19;;;-8.37;96.37
26807;BME280;14380;49.910;6.792;2022-12-18T08:35:34;99914.47;;;-8.48;96.74
26807;BME280;14380;49.910;6.792;2022-12-18T08:38:01;99925.81;;;-8.20;96.54
26807;BME280;14380;49.910;6.792;2022-12-18T08:40:28;99916.63;;;-8.36;96.06
26807;BME280;14380;49.910;6.792;2022-12-18T08:42:55;99908.72;;;-8.42;96.42
26807;BME280;14380;49.910;6.792;2022-12-18T08:45:39;99915.78;;;-8.37;95.64
26807;BME280;14380;49.910;6.792;2022-12-18T08:48:07;99922.06;;;-8.28;95.98
26807;BME280;14380;49.910;6.792;2022-12-18T08:50:33;99914.06;;;-8.36;97.70
26807;BME280;14380;49.910;6.792;2022-12-18T08:53:00;99917.41;;;-8.16;98.13
26807;BME280;14380;49.910;6.792;2022-12-18T08:55:27;99920.56;;;-8.23;100.00
26807;BME280;14380;49.910;6.792;2022-12-18T08:57:54;99918.59;;;-8.08;100.00
26807;BME280;14380;49.910;6.792;2022-12-18T09:00:21;99923.25;;;-7.97;100.00
26807;BME280;14380;49.910;6.792;2022-12-18T09:02:47;99923.53;;;-7.89;99.80
26807;BME280;14380;49.910;6.792;2022-12-18T09:05:15;99929.91;;;-7.80;98.45
26807;BME280;14380;49.910;6.792;2022-12-18T09:07:42;99927.47;;;-7.77;99.83
26807;BME280;14380;49.910;6.792;2022-12-18T09:10:09;99935.56;;;-7.66;98.62
26807;BME280;14380;49.910;6.792;2022-12-18T09:12:35;99943.72;;;-7.76;97.73
26807;BME280;14380;49.910;6.792;2022-12-18T09:15:02;99949.13;;;-7.68;98.06
26807;BME280;14380;49.910;6.792;2022-12-18T09:17:29;99952.50;;;-7.47;99.00
26807;BME280;14380;49.910;6.792;2022-12-18T09:19:55;99956.44;;;-7.55;99.63
26807;BME280;14380;49.910;6.792;2022-12-18T09:22:23;99961.22;;;-7.41;100.00
26807;BME280;14380;49.910;6.792;2022-12-18T09:24:50;99952.66;;;-7.42;100.00
26807;BME280;14380;49.910;6.792;2022-12-18T09:27:16;99949.75;;;-7.27;100.00
26807;BME280;14380;49.910;6.792;2022-12-18T09:29:43;99951.91;;;-7.15;100.00
26807;BME280;14380;49.910;6.792;2022-12-18T09:32:09;99937.91;;;-6.73;100.00
26807;BME280;14380;49.910;6.792;2022-12-18T09:34:36;99932.13;;;-6.67;100.00
26807;BME280;14380;49.910;6.792;2022-12-18T09:37:03;99943.06;;;-6.73;100.00
26807;BME280;14380;49.910;6.792;2022-12-18T09:39:31;99948.47;;;-6.65;100.00
26807;BME280;14380;49.910;6.792;2022-12-18T09:42:00;99942.50;;;-6.37;100.00
26807;BME280;14380;49.910;6.792;2022-12-18T09:44:29;99928.94;;;-6.33;100.00
26807;BME280;14380;49.910;6.792;2022-12-18T09:47:03;99919.84;;;-6.23;100.00
26807;BME280;14380;49.910;6.792;2022-12-18T09:49:37;99908.75;;;-6.22;100.00
26807;BME280;14380;49.910;6.792;2022-12-18T09:52:11;99913.50;;;-5.76;100.00
26807;BME280;14380;49.910;6.792;2022-12-18T09:54:42;99919.78;;;-5.67;100.00
26807;BME280;14380;49.910;6.792;2022-12-18T09:57:13;99915.22;;;-5.45;100.00
26807;BME280;14380;49.910;6.792;2022-12-18T09:59:41;99913.81;;;-5.65;100.00
26807;BME280;14380;49.910;6.792;2022-12-18T10:02:15;99909.69;;;-5.60;100.00
26807;BME280;14380;49.910;6.792;2022-12-18T10:04:43;99909.16;;;-5.47;100.00
26807;BME280;14380;49.910;6.792;2022-12-18T10:07:16;99904.22;;;-5.09;100.00
26807;BME280;14380;49.910;6.792;2022-12-18T10:09:53;99909.38;;;-5.09;100.00
26807;BME280;14380;49.910;6.792;2022-12-18T10:12:30;99913.84;;;-5.01;100.00
26807;BME280;14380;49.910;6.792;2022-12-18T10:15:04;99910.13;;;-5.13;100.00
26807;BME280;14380;49.910;6.792;2022-12-18T10:17:38;99916.06;;;-4.82;100.00
26807;BME280;14380;49.910;6.792;2022-12-18T10:20:13;99914.09;;;-4.92;100.00
26807;BME280;14380;49.910;6.792;2022-12-18T10:22:51;99901.69;;;-4.73;100.00
26807;BME280;14380;49.910;6.792;2022-12-18T10:25:26;99902.88;;;-4.59;100.00
26807;BME280;14380;49.910;6.792;2022-12-18T10:27:57;99903.19;;;-4.46;100.00
26807;BME280;14380;49.910;6.792;2022-12-18T10:30:25;99903.91;;;-4.52;100.00
26807;BME280;14380;49.910;6.792;2022-12-18T10:32:53;99899.88;;;-4.41;100.00
26807;BME280;14380;49.910;6.792;2022-12-18T10:35:23;99903.03;;;-4.16;100.00
26807;BME280;14380;49.910;6.792;2022-12-18T10:38:03;99893.03;;;-4.02;100.00
26807;BME280;14380;49.910;6.792;2022-12-18T10:40:32;99883.19;;;-4.19;100.00
26807;BME280;14380;49.910;6.792;2022-12-18T10:43:05;99878.38;;;-4.03;100.00
26807;BME280;14380;49.910;6.792;2022-12-18T10:45:32;99876.28;;;-3.81;100.00
26807;BME280;14380;49.910;6.792;2022-12-18T10:47:59;99874.69;;;-3.75;100.00
26807;BME280;14380;49.910;6.792;2022-12-18T10:50:28;99871.63;;;-3.98;100.00
26807;BME280;14380;49.910;6.792;2022-12-18T10:52:58;99867.88;;;-3.71;100.00
26807;BME280;14380;49.910;6.792;2022-12-18T10:55:28;99873.16;;;-3.65;100.00
26807;BME280;14380;49.910;6.792;2022-12-18T10:58:13;99855.09;;;-3.66;100.00
26807;BME280;14380;49.910;6.792;2022-12-18T11:06:01;99847.81;;;-3.41;100.00
26807;BME280;14380;49.910;6.792;2022-12-18T11:08:28;99848.06;;;-3.28;100.00
26807;BME280;14380;49.910;6.792;2022-12-18T11:16:06;99845.72;;;-3.15;100.00
26807;BME280;14380;49.910;6.792;2022-12-18T11:18:34;99851.16;;;-2.98;100.00
26807;BME280;14380;49.910;6.792;2022-12-18T11:21:07;99845.53;;;-3.24;100.00
26807;BME280;14380;49.910;6.792;2022-12-18T11:23:35;99833.19;;;-2.92;100.00
26807;BME280;14380;49.910;6.792;2022-12-18T11:26:04;99825.94;;;-2.61;100.00
26807;BME280;14380;49.910;6.792;2022-12-18T11:28:36;99826.13;;;-2.48;100.00
26807;BME280;14380;49.910;6.792;2022-12-18T11:31:16;99824.97;;;-2.67;100.00
26807;BME280;14380;49.910;6.792;2022-12-18T11:33:46;99828.75;;;-2.47;100.00
26807;BME280;14380;49.910;6.792;2022-12-18T11:36:14;99839.38;;;-2.25;100.00
26807;BME280;14380;49.910;6.792;2022-12-18T11:41:21;99835.41;;;-2.00;100.00
26807;BME280;14380;49.910;6.792;2022-12-18T11:44:11;99830.78;;;-2.24;100.00
26807;BME280;14380;49.910;6.792;2022-12-18T11:54:26;99805.09;;;-2.12;100.00
26807;BME280;14380;49.910;6.792;2022-12-18T11:56:56;99798.22;;;-2.08;100.00
26807;BME280;14380;49.910;6.792;2022-12-18T11:59:30;99803.25;;;-2.19;100.00
26807;BME280;14380;49.910;6.792;2022-12-18T12:02:11;99801.06;;;-2.54;100.00
26807;BME280;14380;49.910;6.792;2022-12-18T12:04:50;99802.31;;;-2.24;100.00
26807;BME280;14380;49.910;6.792;2022-12-18T12:07:28;99798.03;;;-2.23;100.00
26807;BME280;14380;49.910;6.792;2022-12-18T12:10:10;99786.44;;;-2.52;100.00
26807;BME280;14380;49.910;6.792;2022-12-18T12:12:55;99787.56;;;-2.33;100.00
26807;BME280;14380;49.910;6.792;2022-12-18T12:15:29;99792.81;;;-2.27;100.00
26807;BME280;14380;49.910;6.792;2022-12-18T12:18:06;99787.25;;;-2.55;100.00
26807;BME280;14380;49.910;6.792;2022-12-18T12:20:44;99780.88;;;-2.17;100.00
26807;BME280;14380;49.910;6.792;2022-12-18T12:25:46;99777.22;;;-2.31;100.00
26807;BME280;14380;49.910;6.792;2022-12-18T12:28:21;99767.03;;;-2.19;100.00
26807;BME280;14380;49.910;6.792;2022-12-18T12:31:03;99759.16;;;-2.28;100.00
26807;BME280;14380;49.910;6.792;2022-12-18T12:33:38;99759.25;;;-2.23;100.00
26807;BME280;14380;49.910;6.792;2022-12-18T12:36:17;99745.19;;;-2.41;100.00
26807;BME280;14380;49.910;6.792;2022-12-18T12:38:50;99743.03;;;-2.73;100.00
26807;BME280;14380;49.910;6.792;2022-12-18T12:41:21;99746.34;;;-2.17;100.00
26807;BME280;14380;49.910;6.792;2022-12-18T12:44:12;99746.66;;;-1.92;100.00
26807;BME280;14380;49.910;6.792;2022-12-18T12:46:41;99745.28;;;-2.33;100.00
26807;BME280;14380;49.910;6.792;2022-12-18T12:49:12;99735.19;;;-2.15;100.00
26807;BME280;14380;49.910;6.792;2022-12-18T12:51:41;99734.72;;;-1.80;100.00
26807;BME280;14380;49.910;6.792;2022-12-18T12:54:15;99733.69;;;-1.96;100.00
26807;BME280;14380;49.910;6.792;2022-12-18T12:56:49;99732.19;;;-1.72;100.00
26807;BME280;14380;49.910;6.792;2022-12-18T12:59:22;99734.88;;;-1.64;100.00
26807;BME280;14380;49.910;6.792;2022-12-18T13:01:54;99729.56;;;-1.75;100.00
26807;BME280;14380;49.910;6.792;2022-12-18T13:04:30;99729.72;;;-1.64;100.00
26807;BME280;14380;49.910;6.792;2022-12-18T13:07:05;99729.81;;;-1.53;100.00
26807;BME280;14380;49.910;6.792;2022-12-18T13:12:57;99726.28;;;-1.61;100.00
26807;BME280;14380;49.910;6.792;2022-12-18T13:15:28;99730.03;;;-1.28;100.00
26807;BME280;14380;49.910;6.792;2022-12-18T13:18:18;99718.75;;;-1.37;100.00
26807;BME280;14380;49.910;6.792;2022-12-18T13:20:47;99717.81;;;-1.45;100.00
26807;BME280;14380;49.910;6.792;2022-12-18T13:23:29;99716.88;;;-1.53;100.00
26807;BME280;14380;49.910;6.792;2022-12-18T13:25:58;99721.16;;;-1.57;100.00
26807;BME280;14380;49.910;6.792;2022-12-18T13:28:53;99721.34;;;-1.37;100.00
26807;BME280;14380;49.910;6.792;2022-12-18T13:31:58;99724.63;;;-1.53;100.00
26807;BME280;14380;49.910;6.792;2022-12-18T13:34:26;99720.31;;;-1.53;100.00
26807;BME280;14380;49.910;6.792;2022-12-18T13:36:55;99712.38;;;-1.70;100.00